createdAt,value
2022-08-31T00:01:27.855Z,6.00
2022-08-31T00:04:03.148Z,6.00
2022-08-31T00:06:32.047Z,5.67
2022-08-31T00:09:00.890Z,6.00
2022-08-31T00:11:30.689Z,3.00
2022-08-31T00:14:00.518Z,5.00
2022-08-31T00:16:30.092Z,6.00
2022-08-31T00:18:58.094Z,5.00
2022-08-31T00:21:27.975Z,4.00
2022-08-31T00:23:56.456Z,6.00
2022-08-31T00:26:24.833Z,4.00
2022-08-31T00:28:53.226Z,4.00
2022-08-31T00:31:21.288Z,5.33
2022-08-31T00:33:52.734Z,5.00
2022-08-31T00:36:22.016Z,6.00
2022-08-31T00:38:50.651Z,6.00
2022-08-31T00:41:20.635Z,5.00
2022-08-31T00:43:51.078Z,5.50
2022-08-31T00:46:22.055Z,4.00
2022-08-31T00:49:04.965Z,6.00
2022-08-31T00:51:36.597Z,5.67
2022-08-31T00:54:05.262Z,5.00
2022-08-31T00:56:34.849Z,5.00
2022-08-31T00:59:03.229Z,5.00
2022-08-31T01:01:31.126Z,7.33
2022-08-31T01:03:59.472Z,4.00
2022-08-31T01:06:27.772Z,6.00
2022-08-31T01:08:56.942Z,8.00
2022-08-31T01:11:25.250Z,6.50
2022-08-31T01:13:53.423Z,5.50
2022-08-31T01:16:26.266Z,4.00
2022-08-31T01:18:57.112Z,6.00
2022-08-31T01:21:48.230Z,6.00
2022-08-31T01:24:16.428Z,6.67
2022-08-31T01:26:49.569Z,6.00
2022-08-31T01:29:24.246Z,5.00
2022-08-31T01:31:52.054Z,6.00
2022-08-31T01:34:19.962Z,6.00
2022-08-31T01:36:48.311Z,6.00
2022-08-31T01:39:16.235Z,4.00
2022-08-31T01:41:44.269Z,4.00
2022-08-31T01:44:13.521Z,4.00
2022-08-31T01:46:42.322Z,5.67
2022-08-31T01:49:10.350Z,6.00
2022-08-31T01:51:38.349Z,5.00
2022-08-31T01:54:06.590Z,4.00
2022-08-31T01:56:37.129Z,3.00
2022-08-31T01:59:08.458Z,5.00
2022-08-31T02:01:59.818Z,5.33
2022-08-31T02:04:29.237Z,6.00
2022-08-31T02:06:58.567Z,6.00
2022-08-31T02:09:26.994Z,6.00
2022-08-31T02:11:55.155Z,6.00
2022-08-31T02:14:23.180Z,6.00
2022-08-31T02:16:51.194Z,5.00
2022-08-31T02:19:18.977Z,6.00
2022-08-31T02:21:46.795Z,3.00
2022-08-31T02:24:15.304Z,6.33
2022-08-31T02:26:43.481Z,4.50
2022-08-31T02:29:11.529Z,4.00
2022-08-31T02:31:39.994Z,4.50
2022-08-31T02:34:08.109Z,5.00
2022-08-31T02:36:36.159Z,5.67
2022-08-31T02:39:04.376Z,5.50
2022-08-31T02:41:34.510Z,6.00
2022-08-31T02:44:02.840Z,4.67
2022-08-31T02:46:31.093Z,4.00
2022-08-31T02:49:17.609Z,4.00
2022-08-31T02:51:45.392Z,5.50
2022-08-31T02:54:13.980Z,4.00
2022-08-31T02:56:41.905Z,5.00
2022-08-31T02:59:10.126Z,5.00
2022-08-31T03:01:39.113Z,4.00
2022-08-31T03:04:07.393Z,4.00
2022-08-31T03:06:35.195Z,5.00
2022-08-31T03:09:03.230Z,7.33
2022-08-31T03:11:31.561Z,5.33
2022-08-31T03:13:59.782Z,6.00
2022-08-31T03:16:27.646Z,5.33
2022-08-31T03:18:55.995Z,5.33
2022-08-31T03:21:24.003Z,5.00
2022-08-31T03:23:51.971Z,5.00
2022-08-31T03:26:20.962Z,5.00
2022-08-31T03:28:48.714Z,5.00
2022-08-31T03:31:40.070Z,4.00
2022-08-31T03:34:08.251Z,6.00
2022-08-31T03:36:37.311Z,7.00
2022-08-31T03:39:05.165Z,5.00
2022-08-31T03:41:33.147Z,4.50
2022-08-31T03:44:03.900Z,6.00
2022-08-31T03:46:33.706Z,5.67
2022-08-31T03:49:02.857Z,5.00
2022-08-31T03:51:31.839Z,6.00
2022-08-31T03:53:59.626Z,6.00
2022-08-31T03:56:27.629Z,5.00
2022-08-31T03:58:55.444Z,5.00
2022-08-31T04:01:41.559Z,3.00
2022-08-31T04:04:27.885Z,4.33
2022-08-31T04:07:42.409Z,4.00
2022-08-31T04:10:31.408Z,3.50
2022-08-31T04:13:19.256Z,4.00
2022-08-31T04:16:12.336Z,4.00
2022-08-31T04:18:58.633Z,3.00
2022-08-31T04:21:27.695Z,4.00
2022-08-31T04:23:55.759Z,4.00
2022-08-31T04:26:23.807Z,5.00
2022-08-31T04:28:52.310Z,4.00
2022-08-31T04:31:21.199Z,4.00
2022-08-31T04:33:49.972Z,5.00
2022-08-31T04:36:20.218Z,5.67
2022-08-31T04:38:49.645Z,5.50
2022-08-31T04:41:19.123Z,7.00
2022-08-31T04:43:50.685Z,6.00
2022-08-31T04:46:19.836Z,5.00
2022-08-31T04:48:48.432Z,6.00
2022-08-31T04:51:22.086Z,4.00
2022-08-31T04:53:50.829Z,5.67
2022-08-31T04:56:20.670Z,5.00
2022-08-31T04:58:53.087Z,3.00
2022-08-31T05:01:22.831Z,6.00
2022-08-31T05:04:29.245Z,6.00
2022-08-31T05:06:57.704Z,5.00
2022-08-31T05:09:26.191Z,5.00
2022-08-31T05:11:54.989Z,3.67
2022-08-31T05:14:24.241Z,4.00
2022-08-31T05:17:01.305Z,3.00
2022-08-31T05:19:32.067Z,5.67
2022-08-31T05:22:00.474Z,5.00
2022-08-31T05:24:31.649Z,4.00
2022-08-31T05:26:59.455Z,6.67
2022-08-31T05:29:27.859Z,6.00
2022-08-31T05:32:08.982Z,3.00
2022-08-31T05:34:37.118Z,4.00
2022-08-31T05:37:05.382Z,6.00
2022-08-31T05:39:33.559Z,5.67
2022-08-31T05:42:01.562Z,7.00
2022-08-31T05:44:29.764Z,4.00
2022-08-31T05:47:03.497Z,6.00
2022-08-31T05:49:32.640Z,3.00
2022-08-31T05:52:01.398Z,7.00
2022-08-31T05:54:30.512Z,5.33
2022-08-31T05:57:01.166Z,7.00
2022-08-31T05:59:31.267Z,6.00
2022-08-31T06:01:59.957Z,8.67
2022-08-31T06:04:29.534Z,6.67
2022-08-31T06:06:58.426Z,9.00
2022-08-31T06:09:30.392Z,7.00
2022-08-31T06:11:58.376Z,7.00
2022-08-31T06:14:27.072Z,5.00
2022-08-31T06:16:56.793Z,5.00
2022-08-31T06:19:25.905Z,6.00
2022-08-31T06:21:54.382Z,6.00
2022-08-31T06:24:26.905Z,7.00
2022-08-31T06:26:59.525Z,6.00
2022-08-31T06:29:35.056Z,6.00
2022-08-31T06:32:08.065Z,5.67
2022-08-31T06:34:40.128Z,6.00
2022-08-31T06:37:14.493Z,6.67
2022-08-31T06:40:01.298Z,5.00
2022-08-31T06:42:41.255Z,7.00
2022-08-31T06:45:37.956Z,5.00
2022-08-31T06:48:36.025Z,6.00
2022-08-31T06:51:04.936Z,4.00
2022-08-31T06:53:34.895Z,6.00
2022-08-31T06:56:04.249Z,6.00
2022-08-31T06:59:08.086Z,7.67
2022-08-31T07:01:54.154Z,5.00
2022-08-31T07:04:35.970Z,7.00
2022-08-31T07:07:05.388Z,7.00
2022-08-31T07:09:34.056Z,6.33
2022-08-31T07:12:02.008Z,7.33
2022-08-31T07:14:30.524Z,4.33
2022-08-31T07:17:00.243Z,6.00
2022-08-31T07:19:28.266Z,6.00
2022-08-31T07:21:58.849Z,6.00
2022-08-31T07:24:31.294Z,5.00
2022-08-31T07:27:00.752Z,7.00
2022-08-31T07:29:40.336Z,9.00
2022-08-31T07:32:13.073Z,9.00
2022-08-31T07:34:41.586Z,7.00
2022-08-31T07:37:37.013Z,6.33
2022-08-31T07:40:24.391Z,5.67
2022-08-31T07:42:55.257Z,6.67
2022-08-31T07:45:25.812Z,5.00
2022-08-31T07:47:59.969Z,5.00
2022-08-31T07:50:38.292Z,4.67
2022-08-31T07:53:47.761Z,4.00
2022-08-31T07:56:34.870Z,5.00
2022-08-31T07:59:17.640Z,8.00
2022-08-31T08:01:48.552Z,5.33
2022-08-31T08:04:27.399Z,4.00
2022-08-31T08:06:56.686Z,5.67
2022-08-31T08:09:44.484Z,5.00
2022-08-31T08:12:22.449Z,4.33
2022-08-31T08:14:51.984Z,6.00
2022-08-31T08:17:38.195Z,4.00
2022-08-31T08:20:13.492Z,6.00
2022-08-31T08:22:53.986Z,5.00
2022-08-31T08:25:34.642Z,6.00
2022-08-31T08:28:39.376Z,4.00
2022-08-31T08:31:18.023Z,5.00
2022-08-31T08:33:46.054Z,4.33
2022-08-31T08:36:18.504Z,5.00
2022-08-31T08:38:50.619Z,7.00
2022-08-31T08:41:26.940Z,4.67
2022-08-31T08:44:00.974Z,4.00
2022-08-31T08:46:54.788Z,5.33
2022-08-31T08:49:26.015Z,5.00
2022-08-31T08:51:57.544Z,5.00
2022-08-31T08:54:38.807Z,4.00
2022-08-31T08:57:16.605Z,4.33
2022-08-31T08:59:47.075Z,4.67
2022-08-31T09:02:21.541Z,3.00
2022-08-31T09:05:01.301Z,4.33
2022-08-31T09:07:56.849Z,3.50
2022-08-31T09:10:36.902Z,3.00
2022-08-31T09:13:10.910Z,4.00
2022-08-31T09:15:48.335Z,3.00
2022-08-31T09:18:38.831Z,3.33
2022-08-31T09:21:20.914Z,6.33
2022-08-31T09:24:17.133Z,4.00
2022-08-31T09:27:18.243Z,4.00
2022-08-31T09:29:48.030Z,4.00
2022-08-31T09:32:24.877Z,4.00
2022-08-31T09:35:02.495Z,5.00
2022-08-31T09:37:38.257Z,4.67
2022-08-31T09:40:14.836Z,3.00
2022-08-31T09:42:44.012Z,4.00
2022-08-31T09:45:19.746Z,5.00
2022-08-31T09:47:53.182Z,3.00
2022-08-31T09:50:47.164Z,3.00
2022-08-31T09:53:44.237Z,4.00
2022-08-31T09:56:16.130Z,4.00
2022-08-31T09:58:49.186Z,3.67
2022-08-31T10:01:31.072Z,5.00
2022-08-31T10:04:17.281Z,3.67
2022-08-31T10:06:55.724Z,4.67
2022-08-31T10:09:28.245Z,3.67
2022-08-31T10:11:59.617Z,4.67
2022-08-31T10:14:50.857Z,3.33
2022-08-31T10:17:26.215Z,3.00
2022-08-31T10:20:06.997Z,4.67
2022-08-31T10:22:43.946Z,4.33
2022-08-31T10:25:27.076Z,5.00
2022-08-31T10:27:59.038Z,6.00
2022-08-31T10:30:47.162Z,4.00
2022-08-31T10:33:20.611Z,4.00
2022-08-31T10:35:58.592Z,3.00
2022-08-31T10:38:30.713Z,4.00
2022-08-31T10:41:01.561Z,5.67
2022-08-31T10:43:53.825Z,4.00
2022-08-31T10:46:21.778Z,2.00
2022-08-31T10:48:55.139Z,4.00
2022-08-31T10:51:40.818Z,4.00
2022-08-31T10:54:22.169Z,5.00
2022-08-31T10:56:59.373Z,4.00
2022-08-31T10:59:31.668Z,3.00
2022-08-31T11:02:15.532Z,4.00
2022-08-31T11:04:43.352Z,3.00
2022-08-31T11:07:25.207Z,4.00
2022-08-31T11:09:58.895Z,3.00
2022-08-31T11:12:31.274Z,3.33
2022-08-31T11:15:11.428Z,4.00
2022-08-31T11:17:42.234Z,5.00
2022-08-31T11:20:10.147Z,5.33
2022-08-31T11:22:45.364Z,5.00
2022-08-31T11:25:30.007Z,4.00
2022-08-31T11:27:57.810Z,4.33
2022-08-31T11:30:29.259Z,4.50
2022-08-31T11:33:00.343Z,4.00
2022-08-31T11:35:48.147Z,4.00
2022-08-31T11:38:36.359Z,3.00
2022-08-31T11:41:06.277Z,3.33
2022-08-31T11:43:34.060Z,4.67
2022-08-31T11:46:28.725Z,4.00
2022-08-31T11:49:00.288Z,4.00
2022-08-31T11:51:37.361Z,4.00
2022-08-31T11:54:15.873Z,7.00
2022-08-31T11:56:45.326Z,5.00
2022-08-31T11:59:32.669Z,4.67
2022-08-31T12:02:20.570Z,6.00
2022-08-31T12:05:02.939Z,3.67
2022-08-31T12:07:31.557Z,5.00
2022-08-31T12:10:18.024Z,4.33
2022-08-31T12:12:55.953Z,4.00
2022-08-31T12:15:42.228Z,6.00
2022-08-31T12:18:17.594Z,4.67
2022-08-31T12:21:04.096Z,5.00
2022-08-31T12:23:38.074Z,5.00
2022-08-31T12:26:20.846Z,4.00
2022-08-31T12:29:07.226Z,4.00
2022-08-31T12:31:37.524Z,5.00
2022-08-31T12:34:08.193Z,5.00
2022-08-31T12:36:36.699Z,5.00
2022-08-31T12:39:09.931Z,6.00
2022-08-31T12:41:39.846Z,4.00
2022-08-31T12:44:14.009Z,5.00
2022-08-31T12:47:01.697Z,4.00
2022-08-31T12:49:47.920Z,2.33
2022-08-31T12:52:34.442Z,4.00
2022-08-31T12:55:04.504Z,3.67
2022-08-31T12:57:42.548Z,2.33
2022-08-31T13:00:30.870Z,4.00
2022-08-31T13:03:06.236Z,2.33
2022-08-31T13:05:35.642Z,5.00
2022-08-31T13:08:20.671Z,4.00
2022-08-31T13:10:48.708Z,5.00
2022-08-31T13:13:27.108Z,6.00
2022-08-31T13:16:04.775Z,5.00
2022-08-31T13:18:33.774Z,3.00
2022-08-31T13:21:06.015Z,4.00
2022-08-31T13:23:41.700Z,3.00
2022-08-31T13:26:29.781Z,4.00
2022-08-31T13:29:04.774Z,4.00
2022-08-31T13:31:33.819Z,3.33
2022-08-31T13:34:07.632Z,4.00
2022-08-31T13:36:40.957Z,5.00
2022-08-31T13:39:14.661Z,4.00
2022-08-31T13:41:56.393Z,3.67
2022-08-31T13:44:28.018Z,3.00
2022-08-31T13:47:01.362Z,2.00
2022-08-31T13:49:37.359Z,2.00
2022-08-31T13:52:08.023Z,3.00
2022-08-31T13:54:36.802Z,3.00
2022-08-31T13:57:10.627Z,1.00
2022-08-31T13:59:39.618Z,2.00
2022-08-31T14:02:18.730Z,3.00
2022-08-31T14:04:57.251Z,4.67
2022-08-31T14:07:26.812Z,3.00
2022-08-31T14:09:59.038Z,3.00
2022-08-31T14:12:36.409Z,2.00
2022-08-31T14:15:09.326Z,2.00
2022-08-31T14:18:23.953Z,3.50
2022-08-31T14:20:37.040Z,2.33
2022-08-31T14:23:24.657Z,3.33
2022-08-31T14:25:53.816Z,3.00
2022-08-31T14:28:33.751Z,4.00
2022-08-31T14:31:10.321Z,3.00
2022-08-31T14:33:50.587Z,2.33
2022-08-31T14:36:19.471Z,2.67
2022-08-31T14:38:48.607Z,2.00
2022-08-31T14:41:19.038Z,2.00
2022-08-31T14:43:47.628Z,3.00
2022-08-31T14:46:18.079Z,4.00
2022-08-31T14:48:46.120Z,3.00
2022-08-31T14:51:14.009Z,2.00
2022-08-31T14:53:42.874Z,3.00
2022-08-31T14:56:17.701Z,4.00
2022-08-31T14:58:47.476Z,3.67
2022-08-31T15:01:17.809Z,4.00
2022-08-31T15:03:45.871Z,3.00
2022-08-31T15:06:14.170Z,2.00
2022-08-31T15:08:42.002Z,3.33
2022-08-31T15:11:10.333Z,2.00
2022-08-31T15:13:39.925Z,2.33
2022-08-31T15:16:08.414Z,1.00
2022-08-31T15:18:36.738Z,3.33
2022-08-31T15:21:05.696Z,2.00
2022-08-31T15:23:34.132Z,2.00
2022-08-31T15:26:06.597Z,2.00
2022-08-31T15:28:37.578Z,3.00
2022-08-31T15:31:09.387Z,2.00
2022-08-31T15:33:39.473Z,2.00
2022-08-31T15:36:09.613Z,1.00
2022-08-31T15:38:38.808Z,2.00
2022-08-31T15:41:07.348Z,3.00
2022-08-31T15:43:36.055Z,3.00
2022-08-31T15:46:03.927Z,1.00
2022-08-31T15:48:45.413Z,2.67
2022-08-31T15:51:18.604Z,1.33
2022-08-31T15:54:06.124Z,2.00
2022-08-31T15:56:40.999Z,3.00
2022-08-31T15:59:10.353Z,3.00
2022-08-31T16:01:38.846Z,3.00
2022-08-31T16:04:07.089Z,8.00
2022-08-31T16:06:35.050Z,6.00
2022-08-31T16:09:03.597Z,6.00
2022-08-31T16:11:37.034Z,5.33
2022-08-31T16:14:05.662Z,4.50
2022-08-31T16:16:35.429Z,3.00
2022-08-31T16:19:04.453Z,3.00
2022-08-31T16:21:35.007Z,3.00
2022-08-31T16:24:04.220Z,3.00
2022-08-31T16:26:34.688Z,2.00
2022-08-31T16:29:03.974Z,1.67
2022-08-31T16:31:32.491Z,1.67
2022-08-31T16:34:00.379Z,2.00
2022-08-31T16:36:28.810Z,4.00
2022-08-31T16:38:56.889Z,3.00
2022-08-31T16:41:30.607Z,5.00
2022-08-31T16:44:18.900Z,5.00
2022-08-31T16:46:47.623Z,4.00
2022-08-31T16:49:33.481Z,4.00
2022-08-31T16:52:03.622Z,3.67
2022-08-31T16:54:32.406Z,3.67
2022-08-31T16:57:00.789Z,2.00
2022-08-31T16:59:29.439Z,3.00
2022-08-31T17:01:57.365Z,3.00
2022-08-31T17:04:50.516Z,2.00
2022-08-31T17:07:14.971Z,3.00
2022-08-31T17:09:43.065Z,2.00
2022-08-31T17:12:13.325Z,1.00
2022-08-31T17:14:47.184Z,2.67
2022-08-31T17:17:17.587Z,2.00
2022-08-31T17:19:45.988Z,3.00
2022-08-31T17:22:21.404Z,2.67
2022-08-31T17:24:56.429Z,2.00
2022-08-31T17:27:25.270Z,2.00
2022-08-31T17:29:56.406Z,2.00
2022-08-31T17:32:26.918Z,2.00
2022-08-31T17:34:55.083Z,0.00
2022-08-31T17:37:26.616Z,2.00
2022-08-31T17:39:55.589Z,1.00
2022-08-31T17:42:27.029Z,2.00
2022-08-31T17:44:56.466Z,2.00
2022-08-31T17:47:25.309Z,3.00
2022-08-31T17:49:54.153Z,2.00
2022-08-31T17:52:23.209Z,2.00
2022-08-31T17:54:51.740Z,3.00
2022-08-31T17:57:25.098Z,2.00
2022-08-31T17:59:54.940Z,2.00
2022-08-31T18:02:26.844Z,2.00
2022-08-31T18:04:54.836Z,1.00
2022-08-31T18:07:22.898Z,1.00
2022-08-31T18:09:50.785Z,1.00
2022-08-31T18:12:22.134Z,3.00
2022-08-31T18:14:50.685Z,2.00
2022-08-31T18:17:19.818Z,2.00
2022-08-31T18:19:48.403Z,4.00
2022-08-31T18:22:18.245Z,1.67
2022-08-31T18:24:46.097Z,3.00
2022-08-31T18:27:15.361Z,4.00
2022-08-31T18:29:44.847Z,3.00
2022-08-31T18:32:13.636Z,2.00
2022-08-31T18:34:44.928Z,1.00
2022-08-31T18:37:13.685Z,3.00
2022-08-31T18:40:03.267Z,3.00
2022-08-31T18:42:53.015Z,2.00
2022-08-31T18:45:21.685Z,1.00
2022-08-31T18:50:42.501Z,2.00
2022-08-31T18:53:15.338Z,4.00
2022-08-31T18:55:44.542Z,4.00
2022-08-31T18:58:12.929Z,6.00
2022-08-31T19:00:42.134Z,5.33
2022-08-31T19:03:11.220Z,2.00
2022-08-31T19:05:40.313Z,4.00
2022-08-31T19:08:08.262Z,2.67
2022-08-31T19:10:36.245Z,5.00
2022-08-31T19:13:09.915Z,3.00
2022-08-31T19:15:40.232Z,3.67
2022-08-31T19:18:09.442Z,4.00
2022-08-31T19:20:37.580Z,4.00
2022-08-31T19:23:06.215Z,3.00
2022-08-31T19:25:34.029Z,5.33
2022-08-31T19:28:06.980Z,4.00
2022-08-31T19:30:35.340Z,4.67
2022-08-31T19:33:06.060Z,4.00
2022-08-31T19:35:36.159Z,6.00
2022-08-31T19:38:04.767Z,6.33
2022-08-31T19:40:40.150Z,4.00
2022-08-31T19:46:09.597Z,3.00
2022-08-31T19:48:46.178Z,4.67
2022-08-31T19:51:15.714Z,7.00
2022-08-31T19:53:45.250Z,8.00
2022-08-31T19:56:17.865Z,7.00
2022-08-31T19:58:48.873Z,7.00
2022-08-31T20:01:25.402Z,5.67
2022-08-31T20:03:57.697Z,4.33
2022-08-31T20:06:25.496Z,5.00
2022-08-31T20:08:53.880Z,4.00
2022-08-31T20:11:23.644Z,4.00
2022-08-31T20:13:51.634Z,5.00
2022-08-31T20:16:20.232Z,4.00
2022-08-31T20:18:50.585Z,5.67
2022-08-31T20:21:24.641Z,6.00
2022-08-31T20:23:56.439Z,5.00
2022-08-31T20:26:33.070Z,6.00
2022-08-31T20:29:09.381Z,4.00
2022-08-31T20:31:40.370Z,6.00
2022-08-31T20:34:10.303Z,4.67
2022-08-31T20:36:38.781Z,7.67
2022-08-31T20:39:10.209Z,6.33
2022-08-31T20:41:40.241Z,5.00
2022-08-31T20:44:13.332Z,9.00
2022-08-31T20:46:59.830Z,6.33
2022-08-31T20:49:29.460Z,7.00
2022-08-31T20:51:59.456Z,6.50
2022-08-31T20:54:32.999Z,6.67
2022-08-31T20:57:02.774Z,5.00
2022-08-31T20:59:31.547Z,5.00
2022-08-31T21:02:02.385Z,4.00
2022-08-31T21:04:31.532Z,4.67
2022-08-31T21:07:01.300Z,4.00
2022-08-31T21:09:29.682Z,7.00
2022-08-31T21:11:58.404Z,6.50
2022-08-31T21:14:27.461Z,13.00
2022-08-31T21:16:55.870Z,14.67
2022-08-31T21:19:24.526Z,12.67
2022-08-31T21:21:56.233Z,9.00
2022-08-31T21:24:24.079Z,6.00
2022-08-31T21:26:59.234Z,7.00
2022-08-31T21:29:30.432Z,5.00
2022-08-31T21:32:03.267Z,5.00
2022-08-31T21:34:31.795Z,6.00
2022-08-31T21:36:59.614Z,5.00
2022-08-31T21:39:27.502Z,8.00
2022-08-31T21:41:56.069Z,10.00
2022-08-31T21:44:24.578Z,7.67
2022-08-31T21:46:52.615Z,8.00
2022-08-31T21:49:21.236Z,7.00
2022-08-31T21:51:53.743Z,7.00
2022-08-31T21:54:24.635Z,5.00
2022-08-31T21:56:55.466Z,5.00
2022-08-31T21:59:24.579Z,3.00
2022-08-31T22:02:01.094Z,4.00
2022-08-31T22:04:29.969Z,5.00
2022-08-31T22:06:59.675Z,7.00
2022-08-31T22:09:29.047Z,7.33
2022-08-31T22:11:58.308Z,7.00
2022-08-31T22:14:29.373Z,4.00
2022-08-31T22:16:58.825Z,4.00
2022-08-31T22:19:28.643Z,4.00
2022-08-31T22:21:59.151Z,3.00
2022-08-31T22:24:29.151Z,4.00
2022-08-31T22:26:58.588Z,3.33
2022-08-31T22:29:28.451Z,3.00
2022-08-31T22:31:57.809Z,3.00
2022-08-31T22:34:25.765Z,3.00
2022-08-31T22:36:54.704Z,4.00
2022-08-31T22:39:25.752Z,3.00
2022-08-31T22:41:54.154Z,4.67
2022-08-31T22:44:23.276Z,3.00
2022-08-31T22:46:51.579Z,4.00
2022-08-31T22:49:19.759Z,5.00
2022-08-31T22:51:48.458Z,5.00
2022-08-31T22:54:18.022Z,4.00
2022-08-31T22:56:46.775Z,4.00
2022-08-31T22:59:16.752Z,3.00
2022-08-31T23:01:52.317Z,3.00
2022-08-31T23:04:21.201Z,5.00
2022-08-31T23:06:51.812Z,3.00
2022-08-31T23:09:21.332Z,3.00
2022-08-31T23:11:51.875Z,3.33
2022-08-31T23:14:22.964Z,3.00
2022-08-31T23:16:55.343Z,3.00
2022-08-31T23:19:26.478Z,3.00
2022-08-31T23:21:56.858Z,4.00
2022-08-31T23:24:28.758Z,3.00
2022-08-31T23:27:01.646Z,2.00
2022-08-31T23:29:34.911Z,2.00
2022-08-31T23:32:04.452Z,3.00
2022-08-31T23:34:37.798Z,4.00
2022-08-31T23:37:08.679Z,4.00
2022-08-31T23:39:38.102Z,2.00
2022-08-31T23:42:06.617Z,4.00
2022-08-31T23:44:36.233Z,3.50
2022-08-31T23:47:04.920Z,3.00
2022-08-31T23:49:32.654Z,3.00
2022-08-31T23:52:00.937Z,5.50
2022-08-31T23:54:29.743Z,4.33
2022-08-31T23:56:57.780Z,5.00
2022-08-31T23:59:25.590Z,5.00
